Flight Track Log - Related Links

Times and Time Zones

All times are in EDT time to prevent confusion due to time zone crossing. See the N770NC flight status page for this flight to view local times or setup timezone preferences in your user account.

Time Position Orientation Groundspeed Altitude Reporting Facility
EDT Latitude Longitude Course Direction KTS MPH feet Rate Location/Type
Sun 12:23:32 PM 33.6286 -84.4803 241° Southwest 409 471 2,300  Level Atlanta Center
Sun 12:24:32 PM 33.5969 -84.5500 241° Southwest 285 328 5,400 2,500 Climbing Atlanta Center
Sun 12:25:32 PM 33.5467 -84.5997 220° Southwest 263 303 7,300 2,050 Climbing Atlanta Center
Sun 12:26:32 PM 33.4861 -84.5842 168° South 259 298 9,500 1,800 Climbing Atlanta Center
Sun 12:27:32 PM 33.4783 -84.4897 96° East 237 273 10,900 1,300 Climbing Atlanta Center
Sun 12:28:32 PM 33.4892 -84.3775 83° East 273 314 12,100 1,350 Climbing Atlanta Center
Sun 12:29:32 PM 33.5039 -84.2606 81° East 334 384 13,600 1,750 Climbing Atlanta Center
Sun 12:30:32 PM 33.5167 -84.1358 83° East 364 419 15,600 2,000 Climbing Atlanta Center
Sun 12:31:32 PM 33.5417 -84.0114 76° East 376 433 17,600 1,750 Climbing Atlanta Center
Sun 12:32:32 PM 33.5769 -83.8892 71° East 382 440 19,100 1,450 Climbing Atlanta Center
Sun 12:33:32 PM 33.6019 -83.7594 77° East 388 447 20,500 1,450 Climbing Atlanta Center
Sun 12:34:32 PM 33.6350 -83.6272 73° East 403 464 22,000 1,100 Climbing Atlanta Center
Sun 12:35:32 PM 33.6700 -83.4897 73° East 417 480 22,700 500 Climbing Atlanta Center
Sun 12:36:32 PM 33.6900 -83.3297 81° East 430 495 23,000 150 Climbing Atlanta Center
Sun 12:37:32 PM 33.7078 -83.1797 82° East 445 512 23,000  Level Atlanta Center
Sun 12:38:32 PM 33.7086 -83.0300 90° East 445 512 23,000  Level Atlanta Center
Sun 12:39:32 PM 33.6906 -82.8803 98° East 446 513 23,000  Level Atlanta Center
Sun 12:40:32 PM 33.6767 -82.7308 96° East 451 519 23,000 -50 Level Atlanta Center
Sun 12:41:32 PM 33.6833 -82.5808 87° East 451 519 22,900 -1,000 Descending Atlanta Center
Sun 12:42:32 PM 33.7044 -82.4356 80° East 446 513 21,000 -2,550 Descending Atlanta Center
Sun 12:43:32 PM 33.7339 -82.3003 75° East 421 484 17,800 -2,604 Descending Atlanta Center
Sun 12:45:34 PM 33.8294 -82.0550 65° Northeast 410 472 13,100 -1,978 Descending Jacksonville Center
Sun 12:46:34 PM 33.8725 -81.9444 65° Northeast 387 445 11,800 -1,100 Descending Jacksonville Center
Sun 12:47:34 PM 33.9175 -81.8364 63° Northeast 365 420 10,900 -800 Descending Jacksonville Center
Sun 12:48:34 PM 33.9269 -81.7236 84° East 343 395 10,200 -1,400 Descending Jacksonville Center
Sun 12:49:34 PM 33.9239 -81.6236 92° East 316 364 8,100 -2,200 Descending Jacksonville Center
Sun 12:50:34 PM 33.9439 -81.5358 75° East 289 333 5,800 -2,067 Descending Jacksonville Center
Sun 12:51:33 PM 33.9847 -81.4550 59° Northeast 271 312 4,000 -1,300 Descending Jacksonville Center
Sun 12:52:34 PM 33.9983 -81.3772 78° East 252 290 3,200 -694 Descending Jacksonville Center
Sun 12:53:34 PM 33.9831 -81.3172 107° East 190 219 2,600 -600 Descending Jacksonville Center

Login

Don't have an account? Register now (free) for customized features, flight alerts, and more!